Terminal Aerodrome Forecast
Issued by NWS North Platte, NE

Home | Current Version | Previous Version | Graphics & Text | Print | Product List | Glossary On
Versions: 1 2 3 4 5 6 7 8 9 10 11 12 13 14 15 16 17 18 19 20 21 22
846
FTUS43 KLBF 261749 RRA
TAFVTN
TAF
KVTN 261749Z 2618/2718 06011KT P6SM OVC009
     FM270000 01008KT P6SM OVC007
     FM270200 36012KT 3SM -SHRA OVC007
     FM271100 01017G25KT 3SM -SHRA OVC007=

USA.gov is the U.S. government's official web portal to all federal, state and local government web resources and services.